sensor_id;sensor_type;location;lat;lon;timestamp;P1;durP1;ratioP1;P2;durP2;ratioP2
49384;SDS011;36795;45.028;38.968;2024-03-06T00:02:33;35.35;;;17.52;;
49384;SDS011;36795;45.028;38.968;2024-03-06T00:05:23;36.92;;;16.87;;
49384;SDS011;36795;45.028;38.968;2024-03-06T00:08:09;33.22;;;16.50;;
49384;SDS011;36795;45.028;38.968;2024-03-06T00:10:56;37.78;;;17.70;;
49384;SDS011;36795;45.028;38.968;2024-03-06T00:13:42;34.85;;;17.58;;
49384;SDS011;36795;45.028;38.968;2024-03-06T00:16:29;37.03;;;16.58;;
49384;SDS011;36795;45.028;38.968;2024-03-06T00:19:16;35.88;;;16.27;;
49384;SDS011;36795;45.028;38.968;2024-03-06T00:22:03;36.58;;;18.92;;
49384;SDS011;36795;45.028;38.968;2024-03-06T00:24:49;34.53;;;18.87;;
49384;SDS011;36795;45.028;38.968;2024-03-06T00:27:36;35.70;;;17.50;;
49384;SDS011;36795;45.028;38.968;2024-03-06T00:30:22;38.63;;;18.37;;
49384;SDS011;36795;45.028;38.968;2024-03-06T00:33:08;33.67;;;16.92;;
49384;SDS011;36795;45.028;38.968;2024-03-06T00:35:54;39.88;;;17.17;;
49384;SDS011;36795;45.028;38.968;2024-03-06T00:38:40;37.35;;;17.08;;
49384;SDS011;36795;45.028;38.968;2024-03-06T00:41:26;37.45;;;17.42;;
49384;SDS011;36795;45.028;38.968;2024-03-06T00:44:13;39.17;;;17.45;;
49384;SDS011;36795;45.028;38.968;2024-03-06T00:47:00;31.35;;;15.20;;
49384;SDS011;36795;45.028;38.968;2024-03-06T00:49:46;32.45;;;15.00;;
49384;SDS011;36795;45.028;38.968;2024-03-06T00:52:31;33.00;;;15.63;;
49384;SDS011;36795;45.028;38.968;2024-03-06T00:55:18;36.53;;;16.20;;
49384;SDS011;36795;45.028;38.968;2024-03-06T00:58:05;33.70;;;16.35;;
49384;SDS011;36795;45.028;38.968;2024-03-06T01:00:54;36.28;;;16.17;;
49384;SDS011;36795;45.028;38.968;2024-03-06T01:03:40;38.78;;;20.60;;
49384;SDS011;36795;45.028;38.968;2024-03-06T01:06:26;54.03;;;35.63;;
49384;SDS011;36795;45.028;38.968;2024-03-06T01:09:11;54.50;;;41.05;;
49384;SDS011;36795;45.028;38.968;2024-03-06T01:11:58;50.95;;;36.05;;
49384;SDS011;36795;45.028;38.968;2024-03-06T01:14:44;50.97;;;33.33;;
49384;SDS011;36795;45.028;38.968;2024-03-06T01:17:30;46.25;;;28.80;;
49384;SDS011;36795;45.028;38.968;2024-03-06T01:20:16;44.28;;;26.67;;
49384;SDS011;36795;45.028;38.968;2024-03-06T01:23:03;41.35;;;22.83;;
49384;SDS011;36795;45.028;38.968;2024-03-06T01:25:49;38.13;;;21.17;;
49384;SDS011;36795;45.028;38.968;2024-03-06T01:28:35;35.97;;;19.45;;
49384;SDS011;36795;45.028;38.968;2024-03-06T01:31:22;35.20;;;17.83;;
49384;SDS011;36795;45.028;38.968;2024-03-06T01:34:08;34.28;;;16.70;;
49384;SDS011;36795;45.028;38.968;2024-03-06T01:36:53;35.67;;;17.45;;
49384;SDS011;36795;45.028;38.968;2024-03-06T01:39:40;36.75;;;17.35;;
49384;SDS011;36795;45.028;38.968;2024-03-06T01:42:26;37.65;;;17.30;;
49384;SDS011;36795;45.028;38.968;2024-03-06T01:45:12;33.85;;;16.40;;
49384;SDS011;36795;45.028;38.968;2024-03-06T01:47:58;33.72;;;16.50;;
49384;SDS011;36795;45.028;38.968;2024-03-06T01:50:44;35.10;;;15.85;;
49384;SDS011;36795;45.028;38.968;2024-03-06T01:53:31;37.20;;;16.90;;
49384;SDS011;36795;45.028;38.968;2024-03-06T01:56:18;34.85;;;17.42;;
49384;SDS011;36795;45.028;38.968;2024-03-06T01:59:05;40.50;;;17.40;;
49384;SDS011;36795;45.028;38.968;2024-03-06T02:01:52;42.35;;;18.25;;
49384;SDS011;36795;45.028;38.968;2024-03-06T02:04:39;35.65;;;16.37;;
49384;SDS011;36795;45.028;38.968;2024-03-06T02:07:25;36.53;;;16.25;;
49384;SDS011;36795;45.028;38.968;2024-03-06T02:10:14;37.75;;;16.30;;
49384;SDS011;36795;45.028;38.968;2024-03-06T02:13:00;35.17;;;15.82;;
49384;SDS011;36795;45.028;38.968;2024-03-06T02:15:46;34.20;;;15.48;;
49384;SDS011;36795;45.028;38.968;2024-03-06T02:18:33;32.88;;;15.52;;
49384;SDS011;36795;45.028;38.968;2024-03-06T02:21:20;32.88;;;15.85;;
49384;SDS011;36795;45.028;38.968;2024-03-06T02:24:09;35.22;;;14.82;;
49384;SDS011;36795;45.028;38.968;2024-03-06T02:26:58;31.87;;;15.60;;
49384;SDS011;36795;45.028;38.968;2024-03-06T02:29:43;35.42;;;15.65;;
49384;SDS011;36795;45.028;38.968;2024-03-06T02:32:30;33.35;;;15.48;;
49384;SDS011;36795;45.028;38.968;2024-03-06T02:35:16;34.47;;;16.05;;
49384;SDS011;36795;45.028;38.968;2024-03-06T02:38:03;38.10;;;16.17;;
49384;SDS011;36795;45.028;38.968;2024-03-06T02:40:52;38.85;;;17.20;;
49384;SDS011;36795;45.028;38.968;2024-03-06T02:43:38;34.15;;;16.08;;
49384;SDS011;36795;45.028;38.968;2024-03-06T02:46:24;36.08;;;16.92;;
49384;SDS011;36795;45.028;38.968;2024-03-06T02:49:11;34.42;;;16.65;;
49384;SDS011;36795;45.028;38.968;2024-03-06T02:51:56;37.38;;;17.17;;
49384;SDS011;36795;45.028;38.968;2024-03-06T02:54:46;37.47;;;16.45;;
49384;SDS011;36795;45.028;38.968;2024-03-06T02:57:31;33.35;;;16.65;;
49384;SDS011;36795;45.028;38.968;2024-03-06T03:00:18;37.45;;;17.42;;
49384;SDS011;36795;45.028;38.968;2024-03-06T03:03:04;35.92;;;17.27;;
49384;SDS011;36795;45.028;38.968;2024-03-06T03:05:50;41.72;;;16.92;;
49384;SDS011;36795;45.028;38.968;2024-03-06T03:08:37;45.35;;;20.52;;
49384;SDS011;36795;45.028;38.968;2024-03-06T03:11:24;41.10;;;18.77;;
49384;SDS011;36795;45.028;38.968;2024-03-06T03:14:11;38.40;;;17.58;;
49384;SDS011;36795;45.028;38.968;2024-03-06T03:16:57;35.72;;;17.73;;
49384;SDS011;36795;45.028;38.968;2024-03-06T03:19:43;40.40;;;18.62;;
49384;SDS011;36795;45.028;38.968;2024-03-06T03:22:29;37.17;;;18.50;;
49384;SDS011;36795;45.028;38.968;2024-03-06T03:25:15;37.63;;;18.55;;
49384;SDS011;36795;45.028;38.968;2024-03-06T03:28:01;38.05;;;17.50;;
49384;SDS011;36795;45.028;38.968;2024-03-06T03:30:47;40.75;;;18.27;;
49384;SDS011;36795;45.028;38.968;2024-03-06T03:33:34;40.45;;;18.48;;
49384;SDS011;36795;45.028;38.968;2024-03-06T03:36:23;41.70;;;17.52;;
49384;SDS011;36795;45.028;38.968;2024-03-06T03:39:10;39.78;;;18.65;;
49384;SDS011;36795;45.028;38.968;2024-03-06T03:42:02;39.42;;;18.20;;
49384;SDS011;36795;45.028;38.968;2024-03-06T03:44:49;43.75;;;19.50;;
49384;SDS011;36795;45.028;38.968;2024-03-06T03:47:35;40.78;;;19.30;;
49384;SDS011;36795;45.028;38.968;2024-03-06T03:50:21;39.40;;;18.65;;
49384;SDS011;36795;45.028;38.968;2024-03-06T03:53:07;48.20;;;20.12;;
49384;SDS011;36795;45.028;38.968;2024-03-06T03:55:53;46.75;;;21.58;;
49384;SDS011;36795;45.028;38.968;2024-03-06T03:58:39;46.72;;;21.92;;
49384;SDS011;36795;45.028;38.968;2024-03-06T04:01:25;43.28;;;20.80;;
49384;SDS011;36795;45.028;38.968;2024-03-06T04:04:11;47.22;;;19.83;;
49384;SDS011;36795;45.028;38.968;2024-03-06T04:06:57;43.05;;;20.48;;
49384;SDS011;36795;45.028;38.968;2024-03-06T04:09:45;43.15;;;20.52;;
49384;SDS011;36795;45.028;38.968;2024-03-06T04:12:32;52.42;;;21.98;;
49384;SDS011;36795;45.028;38.968;2024-03-06T04:15:18;43.83;;;20.95;;
49384;SDS011;36795;45.028;38.968;2024-03-06T04:18:04;45.60;;;20.00;;
49384;SDS011;36795;45.028;38.968;2024-03-06T04:20:51;58.22;;;19.50;;
49384;SDS011;36795;45.028;38.968;2024-03-06T04:23:37;42.95;;;19.42;;
49384;SDS011;36795;45.028;38.968;2024-03-06T04:26:23;47.60;;;20.42;;
49384;SDS011;36795;45.028;38.968;2024-03-06T04:29:09;43.08;;;21.45;;
49384;SDS011;36795;45.028;38.968;2024-03-06T04:31:55;42.70;;;19.67;;
49384;SDS011;36795;45.028;38.968;2024-03-06T04:34:41;38.53;;;18.40;;
49384;SDS011;36795;45.028;38.968;2024-03-06T04:37:27;36.40;;;17.75;;
49384;SDS011;36795;45.028;38.968;2024-03-06T04:40:14;46.37;;;18.98;;
49384;SDS011;36795;45.028;38.968;2024-03-06T04:43:03;39.17;;;18.67;;
49384;SDS011;36795;45.028;38.968;2024-03-06T04:45:49;43.08;;;18.27;;
49384;SDS011;36795;45.028;38.968;2024-03-06T04:48:36;40.28;;;18.08;;
49384;SDS011;36795;45.028;38.968;2024-03-06T04:51:22;35.38;;;18.15;;
49384;SDS011;36795;45.028;38.968;2024-03-06T04:54:09;51.37;;;24.95;;
49384;SDS011;36795;45.028;38.968;2024-03-06T04:56:55;44.50;;;18.90;;
49384;SDS011;36795;45.028;38.968;2024-03-06T04:59:42;35.75;;;17.17;;
49384;SDS011;36795;45.028;38.968;2024-03-06T05:02:28;48.75;;;20.17;;
49384;SDS011;36795;45.028;38.968;2024-03-06T05:05:14;37.33;;;18.55;;
49384;SDS011;36795;45.028;38.968;2024-03-06T05:08:00;42.50;;;19.33;;
49384;SDS011;36795;45.028;38.968;2024-03-06T05:10:46;40.15;;;18.75;;
49384;SDS011;36795;45.028;38.968;2024-03-06T05:13:32;38.35;;;18.77;;
49384;SDS011;36795;45.028;38.968;2024-03-06T05:16:18;39.13;;;16.83;;
49384;SDS011;36795;45.028;38.968;2024-03-06T05:19:04;39.50;;;19.10;;
49384;SDS011;36795;45.028;38.968;2024-03-06T05:21:51;50.58;;;19.92;;
49384;SDS011;36795;45.028;38.968;2024-03-06T05:24:37;40.12;;;18.27;;
49384;SDS011;36795;45.028;38.968;2024-03-06T05:27:23;40.08;;;17.55;;
49384;SDS011;36795;45.028;38.968;2024-03-06T05:30:10;42.28;;;18.17;;
49384;SDS011;36795;45.028;38.968;2024-03-06T05:32:56;39.55;;;18.00;;
49384;SDS011;36795;45.028;38.968;2024-03-06T05:35:42;38.80;;;17.92;;
49384;SDS011;36795;45.028;38.968;2024-03-06T05:38:29;41.25;;;19.62;;
49384;SDS011;36795;45.028;38.968;2024-03-06T05:41:15;50.60;;;24.58;;
49384;SDS011;36795;45.028;38.968;2024-03-06T05:44:03;42.22;;;20.30;;
49384;SDS011;36795;45.028;38.968;2024-03-06T05:46:49;47.15;;;19.40;;
49384;SDS011;36795;45.028;38.968;2024-03-06T05:49:35;51.95;;;21.20;;
49384;SDS011;36795;45.028;38.968;2024-03-06T05:52:21;53.83;;;21.52;;
49384;SDS011;36795;45.028;38.968;2024-03-06T05:55:07;41.50;;;21.17;;
49384;SDS011;36795;45.028;38.968;2024-03-06T05:57:54;47.13;;;22.50;;
49384;SDS011;36795;45.028;38.968;2024-03-06T06:00:40;42.15;;;20.02;;
49384;SDS011;36795;45.028;38.968;2024-03-06T06:03:27;44.47;;;20.08;;
49384;SDS011;36795;45.028;38.968;2024-03-06T06:06:16;38.63;;;19.45;;
49384;SDS011;36795;45.028;38.968;2024-03-06T06:09:04;40.90;;;20.02;;
49384;SDS011;36795;45.028;38.968;2024-03-06T06:11:50;51.25;;;21.17;;
49384;SDS011;36795;45.028;38.968;2024-03-06T06:14:37;48.85;;;23.12;;
49384;SDS011;36795;45.028;38.968;2024-03-06T06:17:22;42.97;;;20.33;;
49384;SDS011;36795;45.028;38.968;2024-03-06T06:20:09;44.00;;;19.95;;
49384;SDS011;36795;45.028;38.968;2024-03-06T06:23:00;48.10;;;20.50;;
49384;SDS011;36795;45.028;38.968;2024-03-06T06:25:46;40.20;;;20.15;;
49384;SDS011;36795;45.028;38.968;2024-03-06T06:28:32;45.97;;;20.30;;
49384;SDS011;36795;45.028;38.968;2024-03-06T06:31:18;41.65;;;20.92;;
49384;SDS011;36795;45.028;38.968;2024-03-06T06:34:04;40.33;;;21.25;;
49384;SDS011;36795;45.028;38.968;2024-03-06T06:36:50;41.67;;;20.52;;
49384;SDS011;36795;45.028;38.968;2024-03-06T06:39:37;46.53;;;20.73;;
49384;SDS011;36795;45.028;38.968;2024-03-06T06:42:23;40.33;;;19.37;;
49384;SDS011;36795;45.028;38.968;2024-03-06T06:45:09;38.40;;;18.70;;
49384;SDS011;36795;45.028;38.968;2024-03-06T06:47:56;40.03;;;20.52;;
49384;SDS011;36795;45.028;38.968;2024-03-06T06:50:42;40.80;;;20.17;;
49384;SDS011;36795;45.028;38.968;2024-03-06T06:53:28;40.88;;;18.77;;
49384;SDS011;36795;45.028;38.968;2024-03-06T06:56:14;40.22;;;19.70;;
49384;SDS011;36795;45.028;38.968;2024-03-06T06:59:01;37.53;;;19.52;;
49384;SDS011;36795;45.028;38.968;2024-03-06T07:01:47;39.15;;;19.23;;
49384;SDS011;36795;45.028;38.968;2024-03-06T07:04:33;34.53;;;19.50;;
49384;SDS011;36795;45.028;38.968;2024-03-06T07:07:19;39.53;;;20.77;;
49384;SDS011;36795;45.028;38.968;2024-03-06T07:10:05;39.20;;;20.17;;
49384;SDS011;36795;45.028;38.968;2024-03-06T07:12:53;37.67;;;19.75;;
49384;SDS011;36795;45.028;38.968;2024-03-06T07:15:39;42.17;;;20.23;;
49384;SDS011;36795;45.028;38.968;2024-03-06T07:18:25;34.72;;;20.17;;
49384;SDS011;36795;45.028;38.968;2024-03-06T07:21:12;38.85;;;20.37;;
49384;SDS011;36795;45.028;38.968;2024-03-06T07:23:58;41.13;;;21.20;;
49384;SDS011;36795;45.028;38.968;2024-03-06T07:26:45;41.08;;;19.45;;
49384;SDS011;36795;45.028;38.968;2024-03-06T07:29:31;47.45;;;20.73;;
49384;SDS011;36795;45.028;38.968;2024-03-06T07:32:17;37.05;;;20.90;;
49384;SDS011;36795;45.028;38.968;2024-03-06T07:35:03;37.15;;;20.30;;
49384;SDS011;36795;45.028;38.968;2024-03-06T07:37:50;46.80;;;20.30;;
49384;SDS011;36795;45.028;38.968;2024-03-06T07:40:35;38.03;;;20.40;;
49384;SDS011;36795;45.028;38.968;2024-03-06T07:43:21;41.63;;;21.00;;
49384;SDS011;36795;45.028;38.968;2024-03-06T07:46:08;41.60;;;20.95;;
49384;SDS011;36795;45.028;38.968;2024-03-06T07:48:56;44.72;;;22.67;;
49384;SDS011;36795;45.028;38.968;2024-03-06T07:51:42;41.47;;;21.73;;
49384;SDS011;36795;45.028;38.968;2024-03-06T07:54:29;36.90;;;18.95;;
49384;SDS011;36795;45.028;38.968;2024-03-06T07:57:15;44.35;;;21.83;;
49384;SDS011;36795;45.028;38.968;2024-03-06T08:00:01;40.05;;;21.65;;
49384;SDS011;36795;45.028;38.968;2024-03-06T08:02:57;40.70;;;20.65;;
49384;SDS011;36795;45.028;38.968;2024-03-06T08:05:43;40.55;;;21.10;;
49384;SDS011;36795;45.028;38.968;2024-03-06T08:08:29;39.70;;;21.37;;
49384;SDS011;36795;45.028;38.968;2024-03-06T08:11:15;38.42;;;21.10;;
49384;SDS011;36795;45.028;38.968;2024-03-06T08:14:01;44.95;;;21.92;;
49384;SDS011;36795;45.028;38.968;2024-03-06T08:16:48;47.00;;;22.42;;
49384;SDS011;36795;45.028;38.968;2024-03-06T08:19:33;41.85;;;21.05;;
49384;SDS011;36795;45.028;38.968;2024-03-06T08:22:19;38.25;;;20.27;;
49384;SDS011;36795;45.028;38.968;2024-03-06T08:25:10;37.80;;;20.80;;
49384;SDS011;36795;45.028;38.968;2024-03-06T08:27:58;39.60;;;21.23;;
49384;SDS011;36795;45.028;38.968;2024-03-06T08:30:43;40.53;;;19.90;;
49384;SDS011;36795;45.028;38.968;2024-03-06T08:33:30;44.78;;;20.92;;
49384;SDS011;36795;45.028;38.968;2024-03-06T08:36:16;36.25;;;18.73;;
49384;SDS011;36795;45.028;38.968;2024-03-06T08:39:02;36.78;;;20.45;;
49384;SDS011;36795;45.028;38.968;2024-03-06T08:41:48;39.47;;;19.37;;
49384;SDS011;36795;45.028;38.968;2024-03-06T08:44:34;38.97;;;19.30;;
49384;SDS011;36795;45.028;38.968;2024-03-06T08:47:20;41.03;;;18.33;;
49384;SDS011;36795;45.028;38.968;2024-03-06T08:50:07;36.67;;;19.62;;
49384;SDS011;36795;45.028;38.968;2024-03-06T08:52:54;34.88;;;17.20;;
49384;SDS011;36795;45.028;38.968;2024-03-06T08:55:42;33.00;;;17.85;;
49384;SDS011;36795;45.028;38.968;2024-03-06T08:58:28;40.42;;;18.23;;
49384;SDS011;36795;45.028;38.968;2024-03-06T09:01:14;36.22;;;17.90;;
49384;SDS011;36795;45.028;38.968;2024-03-06T09:04:00;35.95;;;17.95;;
49384;SDS011;36795;45.028;38.968;2024-03-06T09:06:47;33.70;;;17.35;;
49384;SDS011;36795;45.028;38.968;2024-03-06T09:09:36;38.50;;;16.95;;
49384;SDS011;36795;45.028;38.968;2024-03-06T09:12:23;34.47;;;17.60;;
49384;SDS011;36795;45.028;38.968;2024-03-06T09:15:09;37.83;;;19.48;;
49384;SDS011;36795;45.028;38.968;2024-03-06T09:17:56;33.72;;;17.25;;
49384;SDS011;36795;45.028;38.968;2024-03-06T09:20:42;36.75;;;18.15;;
49384;SDS011;36795;45.028;38.968;2024-03-06T09:23:29;33.42;;;17.95;;
49384;SDS011;36795;45.028;38.968;2024-03-06T09:26:15;41.60;;;16.67;;
49384;SDS011;36795;45.028;38.968;2024-03-06T09:29:01;34.10;;;17.10;;
49384;SDS011;36795;45.028;38.968;2024-03-06T09:31:47;36.08;;;16.83;;
49384;SDS011;36795;45.028;38.968;2024-03-06T09:34:33;36.22;;;16.30;;
49384;SDS011;36795;45.028;38.968;2024-03-06T09:37:19;34.97;;;16.00;;
49384;SDS011;36795;45.028;38.968;2024-03-06T09:40:06;31.83;;;15.98;;
49384;SDS011;36795;45.028;38.968;2024-03-06T09:42:53;37.92;;;17.15;;
49384;SDS011;36795;45.028;38.968;2024-03-06T09:45:39;33.72;;;15.23;;
49384;SDS011;36795;45.028;38.968;2024-03-06T09:48:25;36.85;;;15.63;;
49384;SDS011;36795;45.028;38.968;2024-03-06T09:51:12;34.78;;;15.60;;
49384;SDS011;36795;45.028;38.968;2024-03-06T09:53:58;32.25;;;15.30;;
49384;SDS011;36795;45.028;38.968;2024-03-06T09:56:45;34.15;;;15.52;;
49384;SDS011;36795;45.028;38.968;2024-03-06T09:59:32;32.58;;;13.93;;
49384;SDS011;36795;45.028;38.968;2024-03-06T10:03:04;37.42;;;15.13;;
49384;SDS011;36795;45.028;38.968;2024-03-06T10:05:37;36.88;;;15.25;;
49384;SDS011;36795;45.028;38.968;2024-03-06T10:08:22;37.92;;;14.27;;
49384;SDS011;36795;45.028;38.968;2024-03-06T10:11:12;36.42;;;15.65;;
49384;SDS011;36795;45.028;38.968;2024-03-06T10:13:58;32.88;;;14.98;;
49384;SDS011;36795;45.028;38.968;2024-03-06T10:16:57;33.92;;;15.52;;
49384;SDS011;36795;45.028;38.968;2024-03-06T10:19:46;33.10;;;14.10;;
49384;SDS011;36795;45.028;38.968;2024-03-06T10:22:35;34.05;;;13.68;;
49384;SDS011;36795;45.028;38.968;2024-03-06T10:25:22;32.03;;;14.65;;
49384;SDS011;36795;45.028;38.968;2024-03-06T10:28:10;31.12;;;13.90;;
49384;SDS011;36795;45.028;38.968;2024-03-06T10:31:02;37.88;;;14.18;;
49384;SDS011;36795;45.028;38.968;2024-03-06T10:33:51;32.95;;;13.98;;
49384;SDS011;36795;45.028;38.968;2024-03-06T10:36:38;32.30;;;14.70;;
49384;SDS011;36795;45.028;38.968;2024-03-06T10:39:25;31.67;;;14.18;;
49384;SDS011;36795;45.028;38.968;2024-03-06T10:42:12;35.30;;;13.98;;
49384;SDS011;36795;45.028;38.968;2024-03-06T10:44:59;34.45;;;14.68;;
49384;SDS011;36795;45.028;38.968;2024-03-06T10:47:48;32.60;;;13.93;;
49384;SDS011;36795;45.028;38.968;2024-03-06T10:50:38;39.08;;;14.63;;
49384;SDS011;36795;45.028;38.968;2024-03-06T10:53:26;34.97;;;15.05;;
49384;SDS011;36795;45.028;38.968;2024-03-06T10:56:14;32.90;;;13.10;;
49384;SDS011;36795;45.028;38.968;2024-03-06T10:59:02;31.00;;;13.75;;
49384;SDS011;36795;45.028;38.968;2024-03-06T11:01:49;40.42;;;13.95;;
49384;SDS011;36795;45.028;38.968;2024-03-06T11:04:37;31.65;;;13.70;;
49384;SDS011;36795;45.028;38.968;2024-03-06T11:07:25;35.53;;;13.55;;
49384;SDS011;36795;45.028;38.968;2024-03-06T11:10:12;42.65;;;14.50;;
49384;SDS011;36795;45.028;38.968;2024-03-06T11:13:01;31.87;;;14.20;;
49384;SDS011;36795;45.028;38.968;2024-03-06T11:15:50;31.05;;;13.70;;
49384;SDS011;36795;45.028;38.968;2024-03-06T11:21:29;32.97;;;12.82;;
49384;SDS011;36795;45.028;38.968;2024-03-06T11:27:04;31.75;;;13.20;;
49384;SDS011;36795;45.028;38.968;2024-03-06T11:30:04;35.15;;;13.38;;
49384;SDS011;36795;45.028;38.968;2024-03-06T11:32:59;32.10;;;14.13;;
49384;SDS011;36795;45.028;38.968;2024-03-06T11:39:13;32.60;;;14.27;;
49384;SDS011;36795;45.028;38.968;2024-03-06T11:42:03;35.63;;;14.80;;
49384;SDS011;36795;45.028;38.968;2024-03-06T11:44:53;32.60;;;13.95;;
49384;SDS011;36795;45.028;38.968;2024-03-06T11:48:00;32.92;;;14.35;;
49384;SDS011;36795;45.028;38.968;2024-03-06T11:50:47;28.83;;;12.90;;
49384;SDS011;36795;45.028;38.968;2024-03-06T11:53:33;33.50;;;12.70;;
49384;SDS011;36795;45.028;38.968;2024-03-06T11:56:24;33.05;;;13.80;;
49384;SDS011;36795;45.028;38.968;2024-03-06T11:59:10;39.05;;;13.30;;
49384;SDS011;36795;45.028;38.968;2024-03-06T12:02:00;33.50;;;14.40;;
49384;SDS011;36795;45.028;38.968;2024-03-06T12:04:52;35.47;;;13.00;;
49384;SDS011;36795;45.028;38.968;2024-03-06T12:07:46;30.60;;;12.80;;
49384;SDS011;36795;45.028;38.968;2024-03-06T12:10:38;37.95;;;14.55;;
49384;SDS011;36795;45.028;38.968;2024-03-06T12:13:24;34.20;;;14.05;;
49384;SDS011;36795;45.028;38.968;2024-03-06T12:16:11;33.17;;;14.15;;
49384;SDS011;36795;45.028;38.968;2024-03-06T12:18:57;32.63;;;12.82;;
49384;SDS011;36795;45.028;38.968;2024-03-06T12:21:46;31.98;;;11.52;;
49384;SDS011;36795;45.028;38.968;2024-03-06T12:24:33;31.73;;;11.55;;
49384;SDS011;36795;45.028;38.968;2024-03-06T12:27:21;38.92;;;16.25;;
49384;SDS011;36795;45.028;38.968;2024-03-06T12:30:08;33.22;;;12.25;;
49384;SDS011;36795;45.028;38.968;2024-03-06T12:32:58;32.70;;;12.73;;
49384;SDS011;36795;45.028;38.968;2024-03-06T12:35:44;33.08;;;11.82;;
49384;SDS011;36795;45.028;38.968;2024-03-06T12:38:31;32.88;;;11.85;;
49384;SDS011;36795;45.028;38.968;2024-03-06T12:41:17;29.15;;;12.15;;
49384;SDS011;36795;45.028;38.968;2024-03-06T12:44:03;33.28;;;11.55;;
49384;SDS011;36795;45.028;38.968;2024-03-06T12:46:49;28.50;;;11.07;;
49384;SDS011;36795;45.028;38.968;2024-03-06T12:49:35;31.33;;;11.95;;
49384;SDS011;36795;45.028;38.968;2024-03-06T12:52:21;36.22;;;12.57;;
49384;SDS011;36795;45.028;38.968;2024-03-06T12:55:07;32.67;;;11.65;;
49384;SDS011;36795;45.028;38.968;2024-03-06T12:57:53;31.05;;;11.00;;
49384;SDS011;36795;45.028;38.968;2024-03-06T13:00:40;33.33;;;13.00;;
49384;SDS011;36795;45.028;38.968;2024-03-06T13:03:26;38.38;;;12.57;;
49384;SDS011;36795;45.028;38.968;2024-03-06T13:06:13;36.88;;;12.37;;
49384;SDS011;36795;45.028;38.968;2024-03-06T13:08:59;33.40;;;11.45;;
49384;SDS011;36795;45.028;38.968;2024-03-06T13:11:45;29.25;;;11.80;;
49384;SDS011;36795;45.028;38.968;2024-03-06T13:14:31;34.72;;;13.13;;
49384;SDS011;36795;45.028;38.968;2024-03-06T13:17:17;33.10;;;13.02;;
49384;SDS011;36795;45.028;38.968;2024-03-06T13:20:04;33.00;;;13.98;;
49384;SDS011;36795;45.028;38.968;2024-03-06T13:22:54;33.33;;;12.13;;
49384;SDS011;36795;45.028;38.968;2024-03-06T13:25:40;34.20;;;12.30;;
49384;SDS011;36795;45.028;38.968;2024-03-06T13:28:26;31.67;;;12.48;;
49384;SDS011;36795;45.028;38.968;2024-03-06T13:31:12;28.73;;;12.32;;
49384;SDS011;36795;45.028;38.968;2024-03-06T13:34:02;33.13;;;12.00;;
49384;SDS011;36795;45.028;38.968;2024-03-06T13:36:48;27.65;;;11.10;;
49384;SDS011;36795;45.028;38.968;2024-03-06T13:39:34;25.30;;;10.30;;
49384;SDS011;36795;45.028;38.968;2024-03-06T13:42:21;32.08;;;11.12;;
49384;SDS011;36795;45.028;38.968;2024-03-06T13:45:07;32.90;;;10.32;;
49384;SDS011;36795;45.028;38.968;2024-03-06T13:47:56;34.33;;;12.32;;
49384;SDS011;36795;45.028;38.968;2024-03-06T13:50:43;27.62;;;11.07;;
49384;SDS011;36795;45.028;38.968;2024-03-06T13:53:32;28.10;;;11.20;;
49384;SDS011;36795;45.028;38.968;2024-03-06T13:56:18;31.50;;;10.98;;
49384;SDS011;36795;45.028;38.968;2024-03-06T13:59:03;33.42;;;14.40;;
49384;SDS011;36795;45.028;38.968;2024-03-06T14:01:50;28.35;;;11.12;;
49384;SDS011;36795;45.028;38.968;2024-03-06T14:04:36;30.02;;;10.93;;
49384;SDS011;36795;45.028;38.968;2024-03-06T14:07:22;31.08;;;10.32;;
49384;SDS011;36795;45.028;38.968;2024-03-06T14:10:08;29.87;;;11.18;;
49384;SDS011;36795;45.028;38.968;2024-03-06T14:12:55;28.02;;;11.40;;
49384;SDS011;36795;45.028;38.968;2024-03-06T14:15:42;29.05;;;11.68;;
49384;SDS011;36795;45.028;38.968;2024-03-06T14:18:29;30.65;;;12.43;;
49384;SDS011;36795;45.028;38.968;2024-03-06T14:21:15;29.17;;;11.90;;
49384;SDS011;36795;45.028;38.968;2024-03-06T14:24:01;32.80;;;12.73;;
49384;SDS011;36795;45.028;38.968;2024-03-06T14:26:54;34.75;;;12.70;;
49384;SDS011;36795;45.028;38.968;2024-03-06T14:29:40;30.35;;;12.27;;
49384;SDS011;36795;45.028;38.968;2024-03-06T14:32:26;34.20;;;12.75;;
49384;SDS011;36795;45.028;38.968;2024-03-06T14:35:12;34.25;;;11.48;;
49384;SDS011;36795;45.028;38.968;2024-03-06T14:37:58;32.92;;;12.40;;
49384;SDS011;36795;45.028;38.968;2024-03-06T14:40:45;30.85;;;13.48;;
49384;SDS011;36795;45.028;38.968;2024-03-06T14:43:31;36.70;;;17.05;;
49384;SDS011;36795;45.028;38.968;2024-03-06T14:46:21;34.58;;;16.08;;
49384;SDS011;36795;45.028;38.968;2024-03-06T14:49:07;36.97;;;18.02;;
49384;SDS011;36795;45.028;38.968;2024-03-06T14:51:54;37.00;;;18.52;;
49384;SDS011;36795;45.028;38.968;2024-03-06T14:54:41;39.55;;;20.08;;
49384;SDS011;36795;45.028;38.968;2024-03-06T14:57:27;41.53;;;19.98;;
49384;SDS011;36795;45.028;38.968;2024-03-06T15:00:14;39.55;;;20.95;;
49384;SDS011;36795;45.028;38.968;2024-03-06T15:03:02;44.58;;;20.65;;
49384;SDS011;36795;45.028;38.968;2024-03-06T15:05:49;41.22;;;21.42;;
49384;SDS011;36795;45.028;38.968;2024-03-06T15:08:35;39.35;;;21.48;;
49384;SDS011;36795;45.028;38.968;2024-03-06T15:11:21;42.05;;;20.95;;
49384;SDS011;36795;45.028;38.968;2024-03-06T15:14:09;41.63;;;22.48;;
49384;SDS011;36795;45.028;38.968;2024-03-06T15:16:55;41.50;;;23.98;;
49384;SDS011;36795;45.028;38.968;2024-03-06T15:19:41;42.83;;;25.23;;
49384;SDS011;36795;45.028;38.968;2024-03-06T15:22:27;46.10;;;25.88;;
49384;SDS011;36795;45.028;38.968;2024-03-06T15:25:13;45.33;;;28.83;;
49384;SDS011;36795;45.028;38.968;2024-03-06T15:28:00;46.03;;;26.12;;
49384;SDS011;36795;45.028;38.968;2024-03-06T15:30:46;41.92;;;24.30;;
49384;SDS011;36795;45.028;38.968;2024-03-06T15:33:32;45.60;;;25.30;;
49384;SDS011;36795;45.028;38.968;2024-03-06T15:36:18;42.88;;;24.30;;
49384;SDS011;36795;45.028;38.968;2024-03-06T15:39:04;44.97;;;26.35;;
49384;SDS011;36795;45.028;38.968;2024-03-06T15:41:51;46.03;;;25.83;;
49384;SDS011;36795;45.028;38.968;2024-03-06T15:44:37;43.83;;;25.77;;
49384;SDS011;36795;45.028;38.968;2024-03-06T15:47:23;44.10;;;25.77;;
49384;SDS011;36795;45.028;38.968;2024-03-06T15:50:10;44.60;;;25.55;;
49384;SDS011;36795;45.028;38.968;2024-03-06T15:52:56;47.88;;;27.23;;
49384;SDS011;36795;45.028;38.968;2024-03-06T15:55:42;41.88;;;21.35;;
49384;SDS011;36795;45.028;38.968;2024-03-06T15:58:28;38.80;;;18.90;;
49384;SDS011;36795;45.028;38.968;2024-03-06T16:01:15;30.92;;;14.40;;
49384;SDS011;36795;45.028;38.968;2024-03-06T16:04:01;26.73;;;12.32;;
49384;SDS011;36795;45.028;38.968;2024-03-06T16:06:47;27.73;;;12.27;;
49384;SDS011;36795;45.028;38.968;2024-03-06T16:09:33;30.80;;;12.88;;
49384;SDS011;36795;45.028;38.968;2024-03-06T16:12:19;29.30;;;12.00;;